Martic Forge, Pennsylvania
Current Conditions -  °F | °C
As of 10:53 PM on Wednesday 22 Oct 2014 (Local Time) from KLNS Reporting Station
Overcast Overcast  
Wind Chill: 51°   Ceiling: 5500
Heat Index: 51°   Visibility: 10mi
Dew Point: 43°   Wind: 18mph
Humidity: 74%   Direction: 330°NNW
Pressure: 29.9"   Gusts: 30mph
Location:  39.9024°N, 76.3233°W
Report Text: KLNS 230253Z AUTO 33016G26KT 10SM FEW029 OVC055 11/06 A2990 RMK AO2 PK WND 32026/0244 SLP127 60000 T01060061 58009
Loading
Personal Weather Stations






























Interactive Weather Map
Tropical Storm Tracking
New forecast layout! Learn more

10-Day Weather Forecast

Advertisements
Track Severe Weather on mobile